KDLN/DLN METAR and TAF weather

Enter ICAO airport designator
Station Type Date Time Source
KDLN METAR 2018/01/23 00:53 UTC NOAA

KDLN 230053Z AUTO 21013KT 10SM OVC110 M06/M07 A3013 RMK AO2 SLP252 T10561072


Station Type Date Time Source
KDLN Decoded METAR 2018/01/23 00:53 UTC NOAA

DILLON AIRPORT, MT, United States (KDLN) 45-15N 112-33W 1591M
Jan 22, 2018 - 07:53 PM EST / 2018.01.23 0053 UTC
Wind: from the SSW (210 degrees) at 15 MPH (13 KT):0
Visibility: 10 mile(s):0
Sky conditions: overcast
Temperature: 21.9 F (-5.6 C)
Windchill: 8 F (-13 C):1
Dew Point: 19.0 F (-7.2 C)
Relative Humidity: 88%
Pressure (altimeter): 30.13 in. Hg (1020 hPa)
ob: KDLN 230053Z AUTO 21013KT 10SM OVC110 M06/M07 A3013 RMK AO2 SLP252 T10561072
cycle: 1

Station Type Date Time Source
KDLN TAF UTC NOAA

Error!


Example: see airport list